Time;durP1;ratioP1;P1;durP2;ratioP2;P2;SDS_P1;SDS_P2;PMS_P1;PMS_P2;Temp;Humidity;BMP_temperature;BMP_pressure;BME280_temperature;BME280_humidity;BME280_pressure;Samples;Min_cycle;Max_cycle;Signal;HPM_P1;HPM_P2
2023/04/06 00:01:48;;;;;;;83.93;16.23;;;3.30;65.70;;;;;;5034537;28;20169;-78
2023/04/06 00:04:15;;;;;;;84.47;17.10;;;3.30;66.20;;;;;;5111401;23;20986;-80
2023/04/06 00:06:44;;;;;;;79.28;14.70;;;3.20;68.90;;;;;;5015170;28;20645;-82
2023/04/06 00:09:09;;;;;;;79.25;14.85;;;3.20;68.00;;;;;;5015145;28;20209;-80
2023/04/06 00:11:35;;;;;;;76.77;14.27;;;3.20;69.40;;;;;;5013865;28;20637;-82
2023/04/06 00:14:01;;;;;;;79.90;15.97;;;3.20;74.40;;;;;;5014006;28;20447;-80
2023/04/06 00:16:27;;;;;;;76.40;13.80;;;3.10;74.60;;;;;;5015182;28;20165;-80
2023/04/06 00:18:52;;;;;;;78.97;16.30;;;3.10;77.30;;;;;;5014457;28;20592;-80
2023/04/06 00:21:18;;;;;;;79.10;16.80;;;3.10;79.10;;;;;;5015532;28;20174;-80
2023/04/06 00:23:44;;;;;;;80.90;15.47;;;3.10;79.40;;;;;;5013963;28;20245;-80
2023/04/06 00:26:12;;;;;;;79.30;15.80;;;3.00;81.90;;;;;;5016422;28;20784;-80
2023/04/06 00:28:38;;;;;;;87.75;19.40;;;3.00;80.30;;;;;;5017182;28;20444;-80
2023/04/06 00:31:04;;;;;;;82.20;19.07;;;3.00;82.40;;;;;;5018878;28;20165;-80
2023/04/06 00:33:29;;;;;;;86.70;17.93;;;3.10;86.10;;;;;;5018434;28;20182;-80
2023/04/06 00:35:55;;;;;;;79.27;15.83;;;3.10;84.30;;;;;;5019008;28;20166;-80
2023/04/06 00:38:22;;;;;;;87.27;17.20;;;3.00;82.60;;;;;;5018795;28;20245;-80
2023/04/06 00:40:47;;;;;;;81.40;15.05;;;3.10;86.30;;;;;;5019046;28;20865;-81
2023/04/06 00:43:14;;;;;;;91.47;18.60;;;3.10;86.50;;;;;;5018750;28;20193;-80
2023/04/06 00:45:41;;;;;;;83.25;16.38;;;3.10;86.50;;;;;;5017036;28;20609;-81
2023/04/06 00:48:07;;;;;;;82.43;17.17;;;3.10;85.90;;;;;;5018757;28;20228;-80
2023/04/06 00:50:34;;;;;;;80.25;17.58;;;3.10;83.10;;;;;;5018842;28;20166;-80
2023/04/06 00:53:00;;;;;;;81.07;15.88;;;3.10;84.80;;;;;;5017122;28;20593;-80
2023/04/06 00:55:29;;;;;;;79.20;15.23;;;3.10;82.60;;;;;;5016927;28;20170;-80
2023/04/06 00:57:58;;;;;;;80.22;16.65;;;3.10;86.60;;;;;;5018424;28;20198;-82
2023/04/06 01:00:27;;;;;;;79.68;17.38;;;3.10;85.40;;;;;;5018266;28;20162;-81
2023/04/06 01:02:53;;;;;;;85.68;18.55;;;3.00;86.30;;;;;;5018606;28;20638;-81
2023/04/06 01:05:19;;;;;;;85.85;18.70;;;3.10;85.60;;;;;;5018043;28;20189;-82
2023/04/06 01:07:45;;;;;;;81.13;17.80;;;3.00;87.40;;;;;;5018446;28;20164;-81
2023/04/06 01:10:10;;;;;;;84.88;17.55;;;3.00;86.30;;;;;;5016964;28;20413;-82
2023/04/06 01:12:38;;;;;;;82.07;16.20;;;3.00;87.50;;;;;;5016842;28;20553;-81
2023/04/06 01:15:06;;;;;;;78.82;15.32;;;2.90;90.10;;;;;;5016964;28;20166;-81
2023/04/06 01:17:31;;;;;;;82.10;17.80;;;2.90;88.20;;;;;;5017843;28;20162;-82
2023/04/06 01:19:57;;;;;;;78.93;16.00;;;2.90;90.30;;;;;;5017978;28;20232;-82
2023/04/06 01:22:25;;;;;;;82.77;16.27;;;2.80;90.70;;;;;;5017765;28;20769;-81
2023/04/06 01:24:53;;;;;;;80.53;17.85;;;2.80;91.70;;;;;;5017868;28;20161;-82
2023/04/06 01:27:19;;;;;;;82.72;18.30;;;2.70;91.80;;;;;;5017637;28;20170;-82
2023/04/06 01:29:45;;;;;;;83.10;17.80;;;2.70;92.80;;;;;;5018729;28;20190;-82
2023/04/06 01:32:11;;;;;;;83.97;16.07;;;2.60;92.70;;;;;;5018073;28;20244;-80
2023/04/06 01:34:36;;;;;;;81.03;15.53;;;2.60;93.70;;;;;;5016283;28;20447;-82
2023/04/06 01:37:02;;;;;;;82.90;16.60;;;2.60;93.70;;;;;;5017105;28;21028;-82
2023/04/06 01:39:29;;;;;;;86.17;17.83;;;2.60;95.10;;;;;;5016513;28;20174;-82
2023/04/06 01:41:55;;;;;;;79.88;15.45;;;2.60;94.90;;;;;;5017296;28;20166;-82
2023/04/06 01:44:21;;;;;;;81.10;16.10;;;2.50;94.60;;;;;;5017747;28;20251;-82
2023/04/06 01:46:46;;;;;;;82.00;16.20;;;2.50;94.60;;;;;;5017469;28;20169;-81
2023/04/06 01:49:13;;;;;;;80.47;15.80;;;2.50;92.80;;;;;;5017582;28;20661;-81
2023/04/06 01:51:38;;;;;;;81.82;17.30;;;2.40;93.50;;;;;;5018047;28;20181;-81
2023/04/06 01:54:04;;;;;;;81.67;15.03;;;2.40;95.50;;;;;;5017470;28;20186;-82
2023/04/06 01:56:30;;;;;;;81.23;15.67;;;2.40;95.40;;;;;;5016987;28;20400;-82
2023/04/06 01:58:56;;;;;;;79.93;16.60;;;2.40;96.50;;;;;;5016189;28;20417;-81
2023/04/06 02:01:21;;;;;;;81.10;14.67;;;2.40;96.30;;;;;;5017033;28;20178;-81
2023/04/06 02:03:47;;;;;;;77.67;15.03;;;2.30;97.70;;;;;;5016959;28;20696;-81
2023/04/06 02:06:13;;;;;;;78.07;14.50;;;2.30;98.70;;;;;;5016916;28;20421;-81
2023/04/06 02:08:39;;;;;;;80.90;15.30;;;2.30;98.00;;;;;;5016593;28;20455;-81
2023/04/06 02:11:05;;;;;;;79.57;16.20;;;2.30;98.60;;;;;;5016605;28;20162;-82
2023/04/06 02:13:30;;;;;;;82.37;15.87;;;2.30;99.50;;;;;;5016945;28;20420;-81
2023/04/06 02:15:57;;;;;;;81.10;16.03;;;2.30;99.80;;;;;;5016781;28;20626;-81
2023/04/06 02:18:23;;;;;;;78.57;15.77;;;2.30;98.60;;;;;;5015317;28;20170;-82
2023/04/06 02:20:48;;;;;;;83.90;17.80;;;2.30;99.20;;;;;;5016748;28;20174;-81
2023/04/06 02:23:14;;;;;;;85.43;17.90;;;2.20;97.70;;;;;;5015537;28;20864;-81
2023/04/06 02:25:40;;;;;;;79.07;14.83;;;2.20;97.50;;;;;;5016887;28;20189;-81
2023/04/06 02:28:06;;;;;;;81.65;15.13;;;2.20;98.30;;;;;;5015434;28;20456;-81
2023/04/06 02:30:32;;;;;;;87.80;19.03;;;2.20;99.80;;;;;;5017172;28;20172;-81
2023/04/06 02:33:02;;;;;;;81.63;15.70;;;2.20;99.90;;;;;;5016095;28;20460;-81
2023/04/06 02:35:31;;;;;;;86.07;15.13;;;2.20;99.90;;;;;;5016403;28;20200;-81
2023/04/06 02:37:57;;;;;;;80.85;16.15;;;2.20;99.90;;;;;;5016530;28;20162;-81
2023/04/06 02:40:22;;;;;;;84.00;15.67;;;2.10;99.90;;;;;;5016019;28;20216;-81
2023/04/06 02:42:48;;;;;;;81.80;16.80;;;2.10;99.90;;;;;;5015324;28;20521;-82
2023/04/06 02:45:14;;;;;;;80.70;17.37;;;2.10;99.80;;;;;;5015475;28;20170;-81
2023/04/06 02:47:40;;;;;;;83.73;17.23;;;2.20;99.90;;;;;;5015120;28;20312;-81
2023/04/06 02:50:06;;;;;;;80.47;16.27;;;2.10;99.10;;;;;;5015717;28;20389;-81
2023/04/06 02:52:32;;;;;;;84.82;16.08;;;2.00;98.50;;;;;;5016653;28;20656;-81
2023/04/06 02:54:58;;;;;;;81.65;16.55;;;2.00;99.30;;;;;;5015961;28;20162;-81
2023/04/06 02:57:23;;;;;;;80.67;15.87;;;2.00;99.70;;;;;;5016144;28;20180;-81
2023/04/06 02:59:49;;;;;;;80.90;16.40;;;2.00;99.90;;;;;;5016050;28;20170;-81
2023/04/06 03:02:15;;;;;;;77.70;15.80;;;1.90;99.90;;;;;;5016020;28;20205;-81
2023/04/06 03:04:41;;;;;;;81.80;16.87;;;2.00;99.90;;;;;;5015629;28;20205;-81
2023/04/06 03:07:07;;;;;;;84.43;16.45;;;1.90;99.90;;;;;;5016493;28;20178;-81
2023/04/06 03:09:33;;;;;;;78.77;16.30;;;1.90;99.90;;;;;;5016137;28;20193;-81
2023/04/06 03:11:59;;;;;;;87.75;16.58;;;1.90;99.90;;;;;;5014811;28;20178;-81
2023/04/06 03:14:25;;;;;;;79.43;17.55;;;1.90;99.90;;;;;;5015953;28;20611;-82
2023/04/06 03:16:51;;;;;;;83.43;19.50;;;1.90;99.90;;;;;;5016376;28;20162;-81
2023/04/06 03:19:16;;;;;;;83.63;16.10;;;1.90;99.90;;;;;;5016729;28;20168;-81
2023/04/06 03:21:42;;;;;;;84.50;15.73;;;1.90;99.90;;;;;;5016156;28;20756;-81
2023/04/06 03:24:08;;;;;;;77.80;15.07;;;1.90;99.90;;;;;;5016161;28;20205;-81
2023/04/06 03:26:34;;;;;;;87.20;17.27;;;1.80;99.90;;;;;;5016118;28;20165;-82
2023/04/06 03:29:00;;;;;;;84.05;17.35;;;1.80;99.90;;;;;;5014347;28;20251;-81
2023/04/06 03:31:26;;;;;;;82.87;18.40;;;1.80;99.90;;;;;;5014596;28;20573;-81
2023/04/06 03:33:52;;;;;;;85.30;16.60;;;1.80;99.90;;;;;;5015912;28;20425;-81
2023/04/06 03:36:18;;;;;;;80.47;16.93;;;1.80;99.90;;;;;;5016179;28;20170;-81
2023/04/06 03:38:44;;;;;;;80.77;18.73;;;1.80;99.90;;;;;;5015999;28;20400;-81
2023/04/06 03:41:10;;;;;;;84.40;19.13;;;1.80;99.90;;;;;;5016143;28;20166;-81
2023/04/06 03:43:36;;;;;;;83.32;15.90;;;1.70;99.90;;;;;;5016365;28;20188;-81
2023/04/06 03:46:01;;;;;;;85.03;19.50;;;1.80;99.90;;;;;;5016496;28;20520;-81
2023/04/06 03:48:27;;;;;;;82.97;19.27;;;1.80;99.90;;;;;;5016359;28;20194;-81
2023/04/06 03:50:53;;;;;;;82.67;19.13;;;1.80;99.90;;;;;;5016475;28;20253;-81
2023/04/06 03:53:18;;;;;;;84.43;18.83;;;1.80;99.90;;;;;;5015894;28;20197;-81
2023/04/06 03:55:44;;;;;;;83.57;18.37;;;1.70;99.90;;;;;;5016180;28;20158;-81
2023/04/06 03:58:10;;;;;;;77.67;18.30;;;1.70;99.90;;;;;;5015316;28;20449;-81
2023/04/06 04:00:36;;;;;;;86.33;20.00;;;1.70;99.90;;;;;;5015140;28;20170;-81
2023/04/06 04:03:02;;;;;;;85.20;17.40;;;1.70;99.90;;;;;;5013913;28;20683;-81
2023/04/06 04:05:28;;;;;;;85.30;20.20;;;1.70;99.90;;;;;;5013579;28;20216;-81
2023/04/06 04:07:55;;;;;;;82.00;17.55;;;1.70;99.90;;;;;;5015188;28;20208;-80
2023/04/06 04:10:20;;;;;;;82.80;19.48;;;1.70;99.90;;;;;;5015918;28;20208;-80
2023/04/06 04:12:46;;;;;;;80.73;18.90;;;1.70;99.90;;;;;;5014750;28;20178;-80
2023/04/06 04:15:12;;;;;;;85.07;20.00;;;1.70;99.90;;;;;;5014987;28;20397;-81
2023/04/06 04:17:38;;;;;;;83.63;21.33;;;1.70;99.90;;;;;;5014714;28;20162;-81
2023/04/06 04:20:04;;;;;;;86.30;22.33;;;1.80;99.90;;;;;;5013909;28;20189;-80
2023/04/06 04:22:29;;;;;;;79.43;19.52;;;1.70;99.90;;;;;;5014071;28;20224;-81
2023/04/06 04:24:55;;;;;;;82.93;17.20;;;1.80;99.90;;;;;;5015580;28;20169;-81
2023/04/06 04:27:21;;;;;;;87.43;18.60;;;1.80;99.90;;;;;;5016003;28;20169;-81
2023/04/06 04:29:47;;;;;;;79.22;16.25;;;1.80;99.90;;;;;;5015357;28;20212;-81
2023/04/06 04:32:13;;;;;;;83.57;17.10;;;1.80;99.90;;;;;;5014959;28;20162;-81
2023/04/06 04:34:41;;;;;;;88.97;19.10;;;1.80;99.90;;;;;;5015514;28;20185;-81
2023/04/06 04:37:07;;;;;;;84.43;16.83;;;1.80;99.90;;;;;;5014925;28;20169;-80
2023/04/06 04:39:33;;;;;;;87.17;19.07;;;1.80;99.90;;;;;;5014972;28;20259;-81
2023/04/06 04:41:58;;;;;;;91.40;19.20;;;1.80;99.90;;;;;;5015221;28;20178;-80
2023/04/06 04:44:24;;;;;;;81.80;16.70;;;1.80;99.90;;;;;;5015489;28;20216;-81
2023/04/06 04:46:50;;;;;;;83.03;18.40;;;1.80;99.90;;;;;;5015120;28;20650;-80
2023/04/06 04:49:15;;;;;;;82.87;16.00;;;1.80;99.90;;;;;;5014979;28;20726;-81
2023/04/06 04:51:41;;;;;;;84.33;20.60;;;1.80;99.90;;;;;;5015384;28;20162;-80
2023/04/06 04:54:07;;;;;;;84.70;17.43;;;1.80;99.90;;;;;;5015145;28;20213;-81
2023/04/06 04:56:32;;;;;;;82.30;18.30;;;1.90;99.90;;;;;;5015371;28;20570;-81
2023/04/06 04:58:58;;;;;;;85.63;19.07;;;1.90;99.90;;;;;;5015336;28;20174;-81
2023/04/06 05:01:24;;;;;;;97.20;20.03;;;1.80;99.90;;;;;;5013903;28;20174;-81
2023/04/06 05:03:50;;;;;;;87.93;19.17;;;1.80;99.90;;;;;;5016014;28;20673;-80
2023/04/06 05:06:16;;;;;;;90.05;21.23;;;1.80;99.90;;;;;;5015870;28;20261;-81
2023/04/06 05:08:42;;;;;;;88.80;21.13;;;1.90;99.90;;;;;;5014969;28;20190;-80
2023/04/06 05:11:09;;;;;;;83.78;20.60;;;1.90;99.90;;;;;;5014728;28;20196;-80
2023/04/06 05:13:35;;;;;;;90.50;18.10;;;2.00;99.90;;;;;;5017484;28;20182;-80
2023/04/06 05:16:01;;;;;;;89.95;19.88;;;2.00;99.90;;;;;;5017630;28;20166;-81
2023/04/06 05:18:27;;;;;;;86.10;21.45;;;2.00;99.90;;;;;;5016782;28;20599;-81
2023/04/06 05:20:52;;;;;;;82.47;19.50;;;2.00;99.90;;;;;;5018169;28;20181;-81
2023/04/06 05:23:18;;;;;;;92.20;18.80;;;2.10;99.90;;;;;;5018138;28;20453;-81
2023/04/06 05:25:44;;;;;;;93.00;20.30;;;2.10;99.90;;;;;;5016896;28;20189;-81
2023/04/06 05:28:10;;;;;;;89.10;17.13;;;2.10;99.90;;;;;;5018107;28;20200;-81
2023/04/06 05:30:36;;;;;;;88.53;18.30;;;2.20;99.90;;;;;;5018463;28;20847;-81
2023/04/06 05:33:02;;;;;;;78.30;17.30;;;2.20;99.90;;;;;;5017890;28;20190;-81
2023/04/06 05:35:28;;;;;;;82.10;20.67;;;2.10;99.90;;;;;;5017900;28;20166;-81
2023/04/06 05:37:54;;;;;;;85.60;20.33;;;2.20;99.90;;;;;;5017744;28;20204;-81
2023/04/06 05:40:19;;;;;;;85.00;19.17;;;2.30;99.90;;;;;;5017715;28;20165;-81
2023/04/06 05:42:45;;;;;;;86.83;22.07;;;2.30;99.90;;;;;;5018206;28;20178;-81
2023/04/06 05:45:16;;;;;;;85.70;20.70;;;2.40;99.90;;;;;;5016424;28;20173;-81
2023/04/06 05:47:43;;;;;;;87.88;18.48;;;2.40;99.90;;;;;;5017846;28;20213;-81
2023/04/06 05:50:10;;;;;;;86.30;18.58;;;2.40;99.90;;;;;;5015900;28;20700;-82
2023/04/06 05:52:36;;;;;;;85.65;17.77;;;2.50;99.90;;;;;;5017381;28;20682;-81
2023/04/06 05:55:03;;;;;;;82.47;17.47;;;2.50;99.90;;;;;;5017686;28;20162;-81
2023/04/06 05:57:28;;;;;;;81.20;18.33;;;2.50;99.90;;;;;;5017190;28;20400;-81
2023/04/06 05:59:55;;;;;;;78.43;16.57;;;2.50;99.90;;;;;;5016770;28;20220;-81
2023/04/06 06:02:21;;;;;;;100.80;18.45;;;2.50;99.90;;;;;;5018064;28;20164;-82
2023/04/06 06:04:46;;;;;;;80.32;15.48;;;2.60;99.90;;;;;;5091067;23;20304;-77
2023/04/06 06:07:12;;;;;;;80.27;17.00;;;2.70;99.90;;;;;;5035175;28;20656;-77
2023/04/06 06:09:38;;;;;;;81.23;14.77;;;2.80;99.90;;;;;;5035467;28;20791;-77
2023/04/06 06:12:07;;;;;;;81.47;16.00;;;2.90;99.90;;;;;;5035030;28;20630;-77
2023/04/06 06:14:33;;;;;;;78.85;16.83;;;2.90;98.70;;;;;;5034876;28;20185;-77
2023/04/06 06:16:59;;;;;;;82.38;14.10;;;3.00;97.50;;;;;;5034940;28;20164;-77
2023/04/06 06:19:25;;;;;;;78.83;14.07;;;3.10;96.30;;;;;;5033704;28;20173;-77
2023/04/06 06:21:50;;;;;;;77.33;14.10;;;3.10;94.70;;;;;;5034878;28;20938;-77
2023/04/06 06:24:16;;;;;;;77.93;15.17;;;3.10;92.30;;;;;;5035503;28;20840;-77
2023/04/06 06:26:42;;;;;;;79.40;14.87;;;3.30;91.50;;;;;;5034764;28;20268;-77
2023/04/06 06:29:08;;;;;;;80.40;17.35;;;3.30;87.80;;;;;;5034644;28;20275;-77
2023/04/06 06:31:35;;;;;;;77.47;15.23;;;3.30;84.90;;;;;;5034997;28;20165;-77
2023/04/06 06:34:01;;;;;;;80.32;15.15;;;3.40;83.30;;;;;;5034997;28;20641;-77
2023/04/06 06:36:31;;;;;;;81.35;13.75;;;3.50;80.70;;;;;;5034671;28;20172;-77
2023/04/06 06:38:58;;;;;;;80.28;13.55;;;3.60;78.50;;;;;;5033387;28;20173;-77
2023/04/06 06:41:25;;;;;;;77.28;13.80;;;3.70;76.40;;;;;;5034793;28;20260;-77
2023/04/06 06:43:51;;;;;;;79.65;13.50;;;3.70;68.50;;;;;;5034328;28;20200;-77
2023/04/06 06:46:17;;;;;;;74.80;14.57;;;3.90;71.30;;;;;;5034812;28;20529;-77
2023/04/06 06:48:43;;;;;;;81.33;14.13;;;3.90;70.20;;;;;;5033057;28;20446;-77
2023/04/06 06:51:09;;;;;;;72.57;13.10;;;4.00;65.90;;;;;;5033315;28;20169;-77
2023/04/06 06:53:35;;;;;;;78.80;12.93;;;4.10;64.60;;;;;;5034300;28;20235;-77
2023/04/06 06:56:01;;;;;;;75.83;13.77;;;4.20;61.00;;;;;;5034338;28;20165;-77
2023/04/06 06:58:29;;;;;;;77.27;14.20;;;4.30;56.20;;;;;;5034953;28;20412;-77
2023/04/06 07:00:59;;;;;;;75.80;12.73;;;4.40;50.70;;;;;;5034015;28;20927;-77
2023/04/06 07:03:24;;;;;;;75.97;12.48;;;4.50;43.30;;;;;;5033804;28;20190;-77
2023/04/06 07:05:53;;;;;;;79.77;12.40;;;4.60;39.50;;;;;;5033748;28;20272;-76
2023/04/06 07:08:23;;;;;;;78.07;12.10;;;4.80;40.80;;;;;;5034031;28;20447;-76
2023/04/06 07:10:56;;;;;;;76.65;11.90;;;5.00;35.40;;;;;;5034365;28;20157;-77
2023/04/06 07:13:22;;;;;;;78.47;13.10;;;5.10;35.40;;;;;;5033754;28;20660;-77
2023/04/06 07:15:51;;;;;;;77.53;12.63;;;5.30;31.90;;;;;;5032621;28;20161;-77
2023/04/06 07:18:18;;;;;;;81.47;15.25;;;5.40;26.20;;;;;;5033916;28;20210;-77
2023/04/06 07:20:44;;;;;;;82.63;13.38;;;5.50;25.40;;;;;;5034326;28;20153;-77
2023/04/06 07:23:10;;;;;;;78.93;12.33;;;5.70;25.80;;;;;;5033990;28;20193;-77
2023/04/06 07:25:36;;;;;;;76.03;11.90;;;5.80;24.30;;;;;;5032363;28;20482;-77
2023/04/06 07:28:03;;;;;;;75.17;11.60;;;5.90;21.40;;;;;;5033473;28;20266;-77
2023/04/06 07:30:29;;;;;;;82.95;13.02;;;6.10;23.30;;;;;;5094412;22;20480;-77
2023/04/06 07:32:55;;;;;;;78.47;12.55;;;6.20;19.10;;;;;;5097381;23;20216;-77
2023/04/06 07:35:26;;;;;;;75.45;11.68;;;6.30;18.10;;;;;;5033389;28;20137;-77
2023/04/06 07:37:52;;;;;;;77.78;12.70;;;6.40;17.40;;;;;;5033683;28;20154;-77
2023/04/06 07:40:19;;;;;;;79.60;14.32;;;6.40;15.30;;;;;;5033721;28;20158;-77
2023/04/06 07:42:45;;;;;;;89.93;13.90;;;6.40;16.00;;;;;;5015830;28;20185;-77
2023/04/06 07:45:12;;;;;;;78.53;12.60;;;6.60;17.00;;;;;;5033540;28;20211;-77
2023/04/06 07:47:37;;;;;;;80.55;13.93;;;6.70;11.70;;;;;;5033603;28;20233;-77
2023/04/06 07:50:04;;;;;;;80.93;12.43;;;6.70;5.50;;;;;;5033544;28;20264;-77
2023/04/06 07:52:31;;;;;;;86.32;13.02;;;6.70;5.40;;;;;;5033482;28;20172;-77
2023/04/06 07:54:58;;;;;;;80.60;14.18;;;6.80;8.50;;;;;;5032104;28;20256;-77
2023/04/06 07:57:24;;;;;;;77.10;12.27;;;6.80;8.20;;;;;;5033469;28;20165;-77
2023/04/06 07:59:50;;;;;;;75.33;11.00;;;7.00;4.60;;;;;;5031997;28;20599;-77
2023/04/06 08:02:15;;;;;;;81.40;13.73;;;7.10;3.30;;;;;;5033258;28;20899;-77
2023/04/06 08:04:41;;;;;;;81.70;12.50;;;7.20;5.90;;;;;;5033145;28;20546;-77
2023/04/06 08:07:07;;;;;;;83.27;12.07;;;7.20;1.00;;;;;;5033091;28;20176;-77
2023/04/06 08:09:33;;;;;;;83.63;13.77;;;7.30;1.00;;;;;;5033286;28;20235;-77
2023/04/06 08:11:59;;;;;;;78.85;12.60;;;7.40;2.20;;;;;;5033853;28;20548;-77
2023/04/06 08:14:24;;;;;;;79.23;12.87;;;7.40;1.90;;;;;;5033439;28;20193;-77
2023/04/06 08:16:50;;;;;;;79.00;13.10;;;7.50;1.00;;;;;;5033569;28;20617;-77
2023/04/06 08:19:17;;;;;;;76.90;14.27;;;7.60;1.00;;;;;;5033288;28;20235;-77
2023/04/06 08:21:43;;;;;;;89.25;12.48;;;7.70;1.00;;;;;;5033098;28;20676;-77
2023/04/06 08:24:09;;;;;;;82.70;14.18;;;7.80;1.00;;;;;;5033064;28;20593;-77
2023/04/06 08:26:36;;;;;;;77.33;13.33;;;8.00;1.00;;;;;;5032873;28;20199;-76
2023/04/06 08:29:03;;;;;;;91.53;14.13;;;8.10;1.00;;;;;;5032867;28;20239;-77
2023/04/06 08:31:30;;;;;;;78.45;13.25;;;8.10;1.00;;;;;;5031613;28;20252;-77
2023/04/06 08:33:55;;;;;;;83.25;14.13;;;8.20;1.00;;;;;;5033059;28;20602;-77
2023/04/06 08:36:22;;;;;;;78.80;14.57;;;8.30;1.00;;;;;;5032067;28;20252;-77
2023/04/06 08:38:52;;;;;;;81.43;14.88;;;8.40;1.00;;;;;;5033003;28;20380;-77
2023/04/06 08:41:18;;;;;;;78.00;14.52;;;8.50;1.00;;;;;;5032905;28;20232;-77
2023/04/06 08:43:47;;;;;;;77.43;13.43;;;8.70;1.00;;;;;;5033022;28;20728;-77
2023/04/06 08:46:14;;;;;;;76.40;12.98;;;8.90;1.00;;;;;;5033057;28;20633;-77
2023/04/06 08:48:41;;;;;;;81.00;13.65;;;9.00;1.00;;;;;;5036099;28;20203;-77
2023/04/06 08:51:08;;;;;;;79.32;12.95;;;9.10;1.00;;;;;;5036787;28;20146;-77
2023/04/06 08:53:34;;;;;;;80.85;12.50;;;9.20;1.00;;;;;;5036460;28;20235;-77
2023/04/06 08:56:01;;;;;;;82.10;12.40;;;9.20;1.00;;;;;;5036718;28;20165;-77
2023/04/06 08:58:30;;;;;;;76.50;12.93;;;9.20;1.00;;;;;;5036576;28;20418;-77
2023/04/06 09:00:56;;;;;;;77.50;12.80;;;9.30;1.00;;;;;;5036783;28;20528;-77
2023/04/06 09:03:23;;;;;;;79.35;12.40;;;9.40;1.00;;;;;;5036910;28;20234;-77
2023/04/06 09:05:51;;;;;;;76.57;11.95;;;9.30;1.00;;;;;;5036665;28;20232;-77
2023/04/06 09:08:17;;;;;;;78.43;12.85;;;9.40;1.00;;;;;;5036502;28;20211;-77
2023/04/06 09:10:43;;;;;;;82.73;13.13;;;9.60;1.00;;;;;;5036555;28;20200;-77
2023/04/06 09:13:09;;;;;;;77.60;13.00;;;9.70;1.00;;;;;;5036676;28;20176;-77
2023/04/06 09:15:35;;;;;;;77.47;13.23;;;9.80;1.00;;;;;;5036365;28;20416;-77
2023/04/06 09:18:01;;;;;;;79.80;12.70;;;9.90;1.00;;;;;;5036185;28;20388;-77
2023/04/06 09:20:30;;;;;;;78.53;12.32;;;10.10;1.00;;;;;;5036099;28;20392;-77
2023/04/06 09:22:56;;;;;;;79.28;12.75;;;10.20;1.00;;;;;;5036114;28;20188;-77
2023/04/06 09:25:25;;;;;;;80.03;13.93;;;10.40;1.00;;;;;;5036085;28;20240;-77
2023/04/06 09:28:02;;;;;;;76.80;12.55;;;10.60;1.00;;;;;;5036202;28;20211;-77
2023/04/06 09:30:28;;;;;;;81.47;14.40;;;10.60;1.00;;;;;;5036136;28;20231;-77
2023/04/06 09:32:56;;;;;;;81.90;14.63;;;10.50;1.00;;;;;;5035704;28;20192;-77
2023/04/06 09:35:22;;;;;;;76.97;12.10;;;10.50;1.00;;;;;;5034537;28;20477;-77
2023/04/06 09:37:49;;;;;;;79.70;14.02;;;10.60;1.00;;;;;;5035695;28;20219;-77
2023/04/06 09:40:17;;;;;;;78.53;13.40;;;10.80;1.00;;;;;;5035825;28;20165;-77
2023/04/06 09:42:46;;;;;;;83.63;13.35;;;11.00;1.00;;;;;;5035767;28;20192;-77
2023/04/06 09:45:13;;;;;;;80.55;13.40;;;11.10;1.00;;;;;;5035664;28;20165;-77
2023/04/06 09:47:42;;;;;;;81.25;14.88;;;11.20;1.00;;;;;;5035919;28;20165;-77
2023/04/06 09:50:10;;;;;;;78.72;13.07;;;11.30;1.00;;;;;;5035526;28;20192;-77
2023/04/06 09:52:48;;;;;;;80.93;13.13;;;11.40;1.00;;;;;;5035354;28;20146;-77
2023/04/06 09:55:36;;;;;;;79.63;13.68;;;11.60;1.00;;;;;;5034424;28;20218;-77
2023/04/06 09:58:06;;;;;;;80.88;13.70;;;11.70;1.00;;;;;;5034755;28;20173;-77
2023/04/06 10:00:47;;;;;;;78.75;12.20;;;11.70;1.00;;;;;;5035830;28;20150;-77
2023/04/06 10:03:41;;;;;;;81.60;13.07;;;11.90;1.00;;;;;;5035433;28;20522;-77
2023/04/06 10:06:12;;;;;;;79.50;12.20;;;12.10;1.00;;;;;;5035355;28;20590;-77
2023/04/06 10:08:41;;;;;;;78.70;13.43;;;12.20;1.00;;;;;;5035357;28;20539;-77
2023/04/06 10:11:08;;;;;;;84.32;13.40;;;12.40;1.00;;;;;;5035464;28;20168;-77
2023/04/06 10:13:34;;;;;;;77.72;12.55;;;12.50;1.00;;;;;;5035072;28;20177;-77
2023/04/06 10:16:03;;;;;;;77.05;12.85;;;12.50;1.00;;;;;;5034308;28;20169;-77
2023/04/06 10:18:29;;;;;;;80.38;12.73;;;12.40;1.00;;;;;;5035084;28;20172;-77
2023/04/06 10:21:16;;;;;;;79.03;13.90;;;12.40;1.00;;;;;;5035132;28;20226;-77
2023/04/06 10:23:49;;;;;;;79.28;13.05;;;12.70;1.00;;;;;;5034732;28;20579;-77
2023/04/06 10:26:17;;;;;;;79.38;14.35;;;12.60;1.00;;;;;;5035076;28;20165;-77
2023/04/06 10:28:45;;;;;;;78.30;13.93;;;12.60;1.00;;;;;;5033803;28;20188;-77
2023/04/06 10:31:11;;;;;;;79.80;13.00;;;12.80;1.00;;;;;;5035216;28;20165;-77
2023/04/06 10:33:36;;;;;;;79.00;12.97;;;12.90;1.00;;;;;;5034791;28;20200;-77
2023/04/06 10:36:21;;;;;;;78.70;13.40;;;12.70;1.00;;;;;;5035072;28;20244;-77
2023/04/06 10:38:47;;;;;;;80.40;12.10;;;12.70;1.00;;;;;;5034180;28;20639;-77
2023/04/06 10:41:13;;;;;;;76.40;12.80;;;12.80;1.00;;;;;;5033429;28;20260;-77
2023/04/06 10:43:41;;;;;;;81.40;12.68;;;12.90;1.00;;;;;;5034535;28;20684;-77
2023/04/06 10:46:08;;;;;;;77.80;11.18;;;13.20;1.00;;;;;;5034555;28;20183;-77
2023/04/06 10:48:46;;;;;;;80.88;11.15;;;13.40;1.00;;;;;;5034401;28;20187;-77
2023/04/06 10:51:23;;;;;;;79.80;11.48;;;13.40;1.00;;;;;;5035048;28;20165;-77
2023/04/06 10:53:50;;;;;;;83.28;12.32;;;13.60;1.00;;;;;;5034544;28;20180;-77
2023/04/06 10:56:17;;;;;;;77.95;10.32;;;13.70;1.00;;;;;;5034246;28;20161;-77
2023/04/06 10:58:47;;;;;;;82.25;11.63;;;13.70;1.00;;;;;;5032891;28;20641;-77
2023/04/06 11:01:16;;;;;;;80.53;11.50;;;13.80;1.00;;;;;;5034676;28;20165;-77
2023/04/06 11:03:53;;;;;;;79.97;10.50;;;13.80;1.00;;;;;;5034320;28;20193;-77
2023/04/06 11:06:31;;;;;;;81.77;11.50;;;13.80;1.00;;;;;;5034468;28;20169;-77
2023/04/06 11:08:57;;;;;;;79.67;12.33;;;13.60;1.00;;;;;;5033998;28;20463;-77
2023/04/06 11:11:26;;;;;;;81.55;12.25;;;13.50;1.00;;;;;;5034350;28;20404;-77
2023/04/06 11:13:59;;;;;;;79.25;11.98;;;13.50;1.00;;;;;;5034304;28;20608;-78
2023/04/06 11:16:32;;;;;;;82.20;12.18;;;13.40;1.00;;;;;;5034447;28;20154;-78
2023/04/06 11:18:59;;;;;;;82.55;12.70;;;13.60;1.00;;;;;;5034734;28;20161;-78
2023/04/06 11:21:36;;;;;;;81.03;11.50;;;13.70;1.00;;;;;;5033089;28;20256;-77
2023/04/06 11:24:19;;;;;;;85.67;12.80;;;13.90;1.00;;;;;;5034216;28;20431;-78
2023/04/06 11:26:47;;;;;;;78.20;11.20;;;13.90;1.00;;;;;;5034589;28;20391;-78
2023/04/06 11:29:20;;;;;;;81.75;10.95;;;13.90;1.00;;;;;;5032902;28;20200;-77
2023/04/06 11:31:51;;;;;;;81.18;11.18;;;13.70;1.00;;;;;;5034363;28;20710;-77
2023/04/06 11:34:21;;;;;;;79.03;11.80;;;13.90;1.00;;;;;;5034131;28;20193;-77
2023/04/06 11:36:49;;;;;;;83.70;12.30;;;14.20;1.00;;;;;;5034777;28;20392;-77
2023/04/06 11:39:23;;;;;;;75.63;10.63;;;14.30;1.00;;;;;;5034543;28;20404;-78
2023/04/06 11:41:50;;;;;;;87.03;12.73;;;14.50;1.00;;;;;;5034620;28;20443;-78
2023/04/06 11:44:38;;;;;;;81.73;11.90;;;14.60;1.00;;;;;;5033855;28;20515;-78
2023/04/06 11:47:08;;;;;;;83.20;11.70;;;14.60;1.00;;;;;;5034106;28;20385;-78
2023/04/06 11:49:39;;;;;;;81.27;12.57;;;14.70;1.00;;;;;;5034015;28;20531;-77
2023/04/06 11:52:19;;;;;;;78.00;10.73;;;14.60;1.00;;;;;;5033909;28;20404;-78
2023/04/06 11:54:45;;;;;;;83.30;12.77;;;14.60;1.00;;;;;;5033884;28;20424;-77
2023/04/06 11:57:11;;;;;;;81.03;12.30;;;14.70;1.00;;;;;;5033942;28;20437;-77
2023/04/06 11:59:37;;;;;;;80.77;12.73;;;15.00;1.00;;;;;;5033559;28;20404;-78
2023/04/06 12:02:04;;;;;;;84.40;10.47;;;15.20;1.00;;;;;;5033801;28;20447;-77
2023/04/06 12:04:30;;;;;;;81.93;11.80;;;15.20;1.00;;;;;;5048041;23;20262;-80
2023/04/06 12:06:56;;;;;;;78.53;10.90;;;15.40;1.00;;;;;;5015695;28;20421;-82
2023/04/06 12:09:21;;;;;;;80.97;10.60;;;15.50;1.00;;;;;;5016427;28;20503;-82
2023/04/06 12:11:47;;;;;;;78.30;9.00;;;15.60;1.00;;;;;;5016057;28;20568;-82
2023/04/06 12:14:13;;;;;;;75.77;9.43;;;15.70;1.00;;;;;;5017117;28;20177;-82
2023/04/06 12:16:39;;;;;;;80.90;11.00;;;15.70;1.00;;;;;;5014574;28;20176;-82
2023/04/06 12:19:06;;;;;;;77.63;10.53;;;15.70;1.00;;;;;;5014640;28;20629;-82
2023/04/06 12:21:33;;;;;;;77.53;10.53;;;15.40;1.00;;;;;;5015561;28;20420;-82
2023/04/06 12:23:59;;;;;;;79.00;10.00;;;15.50;1.00;;;;;;5017970;28;20433;-82
2023/04/06 12:26:26;;;;;;;76.63;9.70;;;15.40;1.00;;;;;;5019696;28;20420;-82
2023/04/06 12:28:52;;;;;;;77.53;10.00;;;15.50;1.00;;;;;;5018791;28;20452;-82
2023/04/06 12:31:19;;;;;;;75.47;10.23;;;15.20;1.00;;;;;;5018673;28;20928;-82
2023/04/06 12:33:49;;;;;;;80.20;9.27;;;15.30;1.00;;;;;;5018779;28;20197;-82
2023/04/06 12:36:18;;;;;;;76.63;9.73;;;15.40;1.00;;;;;;5020086;28;20405;-82
2023/04/06 12:38:45;;;;;;;76.70;9.90;;;15.40;1.00;;;;;;5018298;28;20427;-82